Time;durP1;ratioP1;P1;durP2;ratioP2;P2;SDS_P1;SDS_P2;PMS_P1;PMS_P2;Temp;Humidity;BMP_temperature;BMP_pressure;BME280_temperature;BME280_humidity;BME280_pressure;Samples;Min_cycle;Max_cycle;Signal;HPM_P1;HPM_P2
2022/07/11 00:00:06;;;;;;;1.40;0.40;;;;;;;;;;5013697;28;20223;-79
2022/07/11 00:02:34;;;;;;;1.27;1.17;;;;;;;;;;4996621;28;20193;-79
2022/07/11 00:05:03;;;;;;;0.50;0.50;;;;;;;;;;4996668;28;20205;-78
2022/07/11 00:07:31;;;;;;;0.80;0.60;;;;;;;;;;4996375;28;20223;-79
2022/07/11 00:10:01;;;;;;;0.73;0.73;;;;;;;;;;4996292;28;20198;-79
2022/07/11 00:12:29;;;;;;;0.50;0.50;;;;;;;;;;5013602;28;20203;-79
2022/07/11 00:14:58;;;;;;;0.70;0.70;;;;;;;;;;4995955;28;20201;-78
2022/07/11 00:17:26;;;;;;;0.90;0.83;;;;;;;;;;4996579;28;20222;-79
2022/07/11 00:19:55;;;;;;;5.10;2.73;;;;;;;;;;4982870;28;20302;-78
2022/07/11 00:22:23;;;;;;;1.37;1.07;;;;;;;;;;4996143;28;20203;-78
2022/07/11 00:24:51;;;;;;;0.97;0.73;;;;;;;;;;4996122;28;20196;-78
2022/07/11 00:27:21;;;;;;;0.70;0.70;;;;;;;;;;4996229;28;20216;-79
2022/07/11 00:29:50;;;;;;;0.57;0.50;;;;;;;;;;4995954;28;20210;-78
2022/07/11 00:32:18;;;;;;;0.70;0.70;;;;;;;;;;4986513;28;20271;-79
2022/07/11 00:34:46;;;;;;;0.73;0.70;;;;;;;;;;4992165;28;20276;-79
2022/07/11 00:37:15;;;;;;;0.37;0.37;;;;;;;;;;4995914;28;20279;-79
2022/07/11 00:39:43;;;;;;;0.63;0.63;;;;;;;;;;4995019;28;20211;-79
2022/07/11 00:42:11;;;;;;;0.50;0.50;;;;;;;;;;4976403;28;20264;-79
2022/07/11 00:44:41;;;;;;;0.93;0.93;;;;;;;;;;5002735;28;20221;-79
2022/07/11 00:47:09;;;;;;;1.93;1.17;;;;;;;;;;4992133;28;20267;-79
2022/07/11 00:49:38;;;;;;;0.43;0.43;;;;;;;;;;4995833;28;20211;-79
2022/07/11 00:52:06;;;;;;;1.33;0.63;;;;;;;;;;4995048;28;20201;-79
2022/07/11 00:54:35;;;;;;;0.33;0.33;;;;;;;;;;4993625;28;20203;-80
2022/07/11 00:57:03;;;;;;;0.30;0.30;;;;;;;;;;4992839;28;20210;-80
2022/07/11 00:59:32;;;;;;;0.67;0.53;;;;;;;;;;4982429;28;20211;-79
2022/07/11 01:02:04;;;;;;;1.93;1.83;;;;;;;;;;4995964;28;20200;-79
2022/07/11 01:04:32;;;;;;;0.60;0.60;;;;;;;;;;4976426;28;20200;-80
2022/07/11 01:07:01;;;;;;;0.50;0.50;;;;;;;;;;5005184;28;20203;-79
2022/07/11 01:09:29;;;;;;;1.57;1.47;;;;;;;;;;4981999;28;20196;-79
2022/07/11 01:11:58;;;;;;;0.63;0.63;;;;;;;;;;4995953;28;20208;-80
2022/07/11 01:14:26;;;;;;;0.50;0.50;;;;;;;;;;4995682;28;20204;-79
2022/07/11 01:16:54;;;;;;;0.60;0.60;;;;;;;;;;5013047;28;20200;-79
2022/07/11 01:19:24;;;;;;;0.70;0.70;;;;;;;;;;4999071;28;20220;-79
2022/07/11 01:21:53;;;;;;;0.70;0.70;;;;;;;;;;5016429;28;20200;-79
2022/07/11 01:24:24;;;;;;;0.23;0.23;;;;;;;;;;5016616;28;20271;-79
2022/07/11 01:26:52;;;;;;;1.33;0.53;;;;;;;;;;4992405;28;20223;-79
2022/07/11 01:29:21;;;;;;;0.53;0.53;;;;;;;;;;4993077;28;20226;-78
2022/07/11 01:31:49;;;;;;;0.40;0.40;;;;;;;;;;4999111;28;20208;-79
2022/07/11 01:34:17;;;;;;;1.43;1.43;;;;;;;;;;4998784;28;20279;-79
2022/07/11 01:36:46;;;;;;;0.60;0.60;;;;;;;;;;4985267;28;20224;-78
2022/07/11 01:39:15;;;;;;;0.30;0.30;;;;;;;;;;5005561;28;20204;-79
2022/07/11 01:41:44;;;;;;;0.70;0.70;;;;;;;;;;5000539;28;20196;-78
2022/07/11 01:44:13;;;;;;;0.63;0.63;;;;;;;;;;4999243;28;20200;-78
2022/07/11 01:46:41;;;;;;;0.77;0.77;;;;;;;;;;5028027;28;20230;-79
2022/07/11 01:49:10;;;;;;;2.57;1.27;;;;;;;;;;4994958;28;20220;-79
2022/07/11 01:51:38;;;;;;;0.70;0.70;;;;;;;;;;4990275;28;20254;-78
2022/07/11 01:54:06;;;;;;;0.63;0.63;;;;;;;;;;4998933;28;20203;-79
2022/07/11 01:56:35;;;;;;;0.40;0.40;;;;;;;;;;5006016;28;20208;-78
2022/07/11 01:59:05;;;;;;;0.60;0.60;;;;;;;;;;4981539;28;20200;-78
2022/07/11 02:01:33;;;;;;;0.83;0.83;;;;;;;;;;4989595;28;20209;-78
2022/07/11 02:04:02;;;;;;;0.30;0.30;;;;;;;;;;4994205;28;20210;-78
2022/07/11 02:06:33;;;;;;;2.57;1.20;;;;;;;;;;4998478;28;20327;-79
2022/07/11 02:09:01;;;;;;;0.57;0.57;;;;;;;;;;5015054;28;20274;-78
2022/07/11 02:11:30;;;;;;;0.63;0.63;;;;;;;;;;4985548;28;20200;-78
2022/07/11 02:13:58;;;;;;;0.40;0.40;;;;;;;;;;4998589;28;20223;-79
2022/07/11 02:16:28;;;;;;;1.23;0.77;;;;;;;;;;4984823;28;20196;-78
2022/07/11 02:18:56;;;;;;;1.17;1.07;;;;;;;;;;5015777;28;20203;-79
2022/07/11 02:21:25;;;;;;;5.73;3.70;;;;;;;;;;4995922;28;20203;-78
2022/07/11 02:23:53;;;;;;;0.60;0.60;;;;;;;;;;5017007;28;20210;-79
2022/07/11 02:26:22;;;;;;;0.60;0.60;;;;;;;;;;5012940;28;20189;-79
2022/07/11 02:28:50;;;;;;;0.73;0.73;;;;;;;;;;4998480;28;20280;-78
2022/07/11 02:31:18;;;;;;;0.50;0.50;;;;;;;;;;5007855;28;20215;-79
2022/07/11 02:33:49;;;;;;;0.40;0.40;;;;;;;;;;5014888;28;20195;-79
2022/07/11 02:36:17;;;;;;;0.80;0.80;;;;;;;;;;5007014;28;20289;-79
2022/07/11 02:38:45;;;;;;;1.03;1.03;;;;;;;;;;5003182;28;20199;-79
2022/07/11 02:41:14;;;;;;;0.50;0.50;;;;;;;;;;5027668;28;20207;-79
2022/07/11 02:43:42;;;;;;;0.50;0.50;;;;;;;;;;5011794;28;20204;-78
2022/07/11 02:46:11;;;;;;;0.40;0.40;;;;;;;;;;4984250;28;20206;-78
2022/07/11 02:48:40;;;;;;;0.90;0.90;;;;;;;;;;4997754;28;20290;-78
2022/07/11 02:51:10;;;;;;;0.50;0.50;;;;;;;;;;5028994;28;20200;-78
2022/07/11 02:53:38;;;;;;;0.80;0.80;;;;;;;;;;4997784;28;20287;-78
2022/07/11 02:56:07;;;;;;;0.30;0.30;;;;;;;;;;5010764;28;20208;-78
2022/07/11 02:58:36;;;;;;;0.93;0.93;;;;;;;;;;4997758;28;20227;-78
2022/07/11 03:01:03;;;;;;;0.77;0.77;;;;;;;;;;5011038;28;20210;-79
2022/07/11 03:03:31;;;;;;;1.13;0.93;;;;;;;;;;4997450;28;20204;-78
2022/07/11 03:06:00;;;;;;;0.40;0.40;;;;;;;;;;5029468;28;20260;-79
2022/07/11 03:08:30;;;;;;;0.30;0.30;;;;;;;;;;5009560;28;20212;-78
2022/07/11 03:10:58;;;;;;;0.60;0.60;;;;;;;;;;5014646;28;20204;-78
2022/07/11 03:13:35;;;;;;;0.77;0.77;;;;;;;;;;4996200;28;20226;-78
2022/07/11 03:16:05;;;;;;;0.60;0.60;;;;;;;;;;4997126;28;20207;-79
2022/07/11 03:18:34;;;;;;;0.30;0.30;;;;;;;;;;4997182;28;20187;-79
2022/07/11 03:21:02;;;;;;;0.97;0.80;;;;;;;;;;4990056;28;20209;-78
2022/07/11 03:23:32;;;;;;;0.70;0.70;;;;;;;;;;4987756;28;20201;-79
2022/07/11 03:26:00;;;;;;;0.30;0.30;;;;;;;;;;4996987;28;20208;-79
2022/07/11 03:28:47;;;;;;;0.73;0.53;;;;;;;;;;5090701;27;20514;-78
2022/07/11 03:31:15;;;;;;;0.77;0.77;;;;;;;;;;5089476;28;20255;-78
2022/07/11 03:33:44;;;;;;;0.43;0.43;;;;;;;;;;5085405;28;20265;-78
2022/07/11 03:36:13;;;;;;;0.97;0.70;;;;;;;;;;5081503;28;20209;-78
2022/07/11 03:38:41;;;;;;;5.80;1.67;;;;;;;;;;5075643;28;20186;-78
2022/07/11 03:41:09;;;;;;;1.23;1.00;;;;;;;;;;5089322;28;20258;-78
2022/07/11 03:43:37;;;;;;;0.60;0.60;;;;;;;;;;5090618;28;20236;-78
2022/07/11 03:46:07;;;;;;;0.53;0.53;;;;;;;;;;5081077;28;20200;-78
2022/07/11 03:48:36;;;;;;;0.60;0.60;;;;;;;;;;5069705;28;20263;-79
2022/07/11 03:51:04;;;;;;;0.40;0.40;;;;;;;;;;5082408;28;20212;-79
2022/07/11 03:53:33;;;;;;;0.80;0.80;;;;;;;;;;5083813;28;20215;-79
2022/07/11 03:56:01;;;;;;;1.37;0.93;;;;;;;;;;5070199;28;20193;-79
2022/07/11 03:58:30;;;;;;;0.60;0.60;;;;;;;;;;5078465;28;20221;-79
2022/07/11 04:00:58;;;;;;;0.47;0.47;;;;;;;;;;5068853;28;20202;-79
2022/07/11 04:03:28;;;;;;;0.97;0.97;;;;;;;;;;5080102;28;20209;-79
2022/07/11 04:05:56;;;;;;;0.37;0.37;;;;;;;;;;5089321;28;20205;-79
2022/07/11 04:08:24;;;;;;;0.30;0.30;;;;;;;;;;5079687;28;20210;-79
2022/07/11 04:10:53;;;;;;;0.30;0.30;;;;;;;;;;5083835;28;20202;-79
2022/07/11 04:13:21;;;;;;;0.60;0.60;;;;;;;;;;5090021;28;20250;-79
2022/07/11 04:15:49;;;;;;;0.80;0.80;;;;;;;;;;5089833;28;20195;-79
2022/07/11 04:18:18;;;;;;;1.03;1.03;;;;;;;;;;5088888;28;20197;-79
2022/07/11 04:20:49;;;;;;;0.77;0.63;;;;;;;;;;5089875;28;20244;-79
2022/07/11 04:23:17;;;;;;;2.40;1.97;;;;;;;;;;5068360;28;20190;-78
2022/07/11 04:25:46;;;;;;;0.73;0.73;;;;;;;;;;5068409;28;20198;-79
2022/07/11 04:28:14;;;;;;;0.87;0.87;;;;;;;;;;5083161;28;20272;-78
2022/07/11 04:30:42;;;;;;;0.93;0.90;;;;;;;;;;5088789;28;20220;-79
2022/07/11 04:33:10;;;;;;;0.50;0.50;;;;;;;;;;5074722;28;20347;-79
2022/07/11 04:35:39;;;;;;;0.50;0.50;;;;;;;;;;5074082;28;20222;-79
2022/07/11 04:38:09;;;;;;;0.50;0.50;;;;;;;;;;5086905;28;20232;-79
2022/07/11 04:40:37;;;;;;;0.47;0.47;;;;;;;;;;5076198;28;20274;-78
2022/07/11 04:43:06;;;;;;;0.60;0.60;;;;;;;;;;5064625;28;20203;-78
2022/07/11 04:45:34;;;;;;;0.60;0.60;;;;;;;;;;5069227;28;20294;-78
2022/07/11 04:48:02;;;;;;;1.60;0.90;;;;;;;;;;5064657;28;20313;-78
2022/07/11 04:50:31;;;;;;;0.40;0.40;;;;;;;;;;5058032;28;20213;-78
2022/07/11 04:52:59;;;;;;;3.33;0.83;;;;;;;;;;5063899;28;20197;-79
2022/07/11 04:55:29;;;;;;;0.47;0.47;;;;;;;;;;5060370;28;20210;-78
2022/07/11 04:57:58;;;;;;;0.60;0.60;;;;;;;;;;5074772;28;20202;-78
2022/07/11 05:00:26;;;;;;;0.30;0.30;;;;;;;;;;5075387;28;20196;-78
2022/07/11 05:02:55;;;;;;;0.20;0.20;;;;;;;;;;5061035;28;20216;-79
2022/07/11 05:05:23;;;;;;;0.40;0.40;;;;;;;;;;5061678;28;20205;-79
2022/07/11 05:07:52;;;;;;;0.57;0.57;;;;;;;;;;5074548;28;20209;-79
2022/07/11 05:10:20;;;;;;;0.97;0.90;;;;;;;;;;5074278;28;20213;-78
2022/07/11 05:12:50;;;;;;;1.10;0.90;;;;;;;;;;5059864;28;20276;-79
2022/07/11 05:15:18;;;;;;;1.23;1.10;;;;;;;;;;5065207;28;20230;-79
2022/07/11 05:17:47;;;;;;;0.70;0.70;;;;;;;;;;5054012;28;20362;-79
2022/07/11 05:20:15;;;;;;;1.90;1.03;;;;;;;;;;5054212;28;20202;-79
2022/07/11 05:22:44;;;;;;;0.73;0.73;;;;;;;;;;5069222;28;20198;-79
2022/07/11 05:25:12;;;;;;;0.87;0.87;;;;;;;;;;5054250;28;20240;-79
2022/07/11 05:27:41;;;;;;;0.50;0.50;;;;;;;;;;5068403;28;20238;-78
2022/07/11 05:30:11;;;;;;;1.10;0.70;;;;;;;;;;5070408;28;20221;-78
2022/07/11 05:32:40;;;;;;;0.97;0.97;;;;;;;;;;5064735;28;20214;-79
2022/07/11 05:35:08;;;;;;;0.43;0.43;;;;;;;;;;5059614;28;20223;-79
2022/07/11 05:37:37;;;;;;;0.90;0.87;;;;;;;;;;5074740;28;20205;-79
2022/07/11 05:40:06;;;;;;;0.53;0.53;;;;;;;;;;5059706;28;20230;-79
2022/07/11 05:42:34;;;;;;;4.80;1.27;;;;;;;;;;5066741;28;20195;-79
2022/07/11 05:45:02;;;;;;;0.83;0.83;;;;;;;;;;5067186;28;20200;-80
2022/07/11 05:47:32;;;;;;;0.63;0.63;;;;;;;;;;5073312;28;20206;-80
2022/07/11 05:50:01;;;;;;;0.43;0.43;;;;;;;;;;5074556;28;20209;-80
2022/07/11 05:52:29;;;;;;;0.47;0.47;;;;;;;;;;5060659;28;20212;-80
2022/07/11 05:54:58;;;;;;;0.50;0.50;;;;;;;;;;5074228;28;20260;-80
2022/07/11 05:57:27;;;;;;;0.70;0.70;;;;;;;;;;5059966;28;20206;-80
2022/07/11 05:59:55;;;;;;;0.93;0.50;;;;;;;;;;5064712;28;20206;-81
2022/07/11 06:02:24;;;;;;;0.60;0.60;;;;;;;;;;5069778;28;20204;-80
2022/07/11 06:04:54;;;;;;;1.20;0.70;;;;;;;;;;5073318;28;20239;-80
2022/07/11 06:10:04;;;;;;;0.67;0.67;;;;;;;;;;5027464;28;20247;-80
2022/07/11 06:12:33;;;;;;;0.43;0.43;;;;;;;;;;5068343;28;20197;-80
2022/07/11 06:15:01;;;;;;;0.30;0.30;;;;;;;;;;5061895;28;20205;-80
2022/07/11 06:17:30;;;;;;;0.50;0.50;;;;;;;;;;5072574;28;20200;-81
2022/07/11 06:20:00;;;;;;;0.60;0.60;;;;;;;;;;5053465;28;20205;-79
2022/07/11 06:22:28;;;;;;;1.50;0.83;;;;;;;;;;5066333;28;20210;-79
2022/07/11 06:24:57;;;;;;;0.60;0.60;;;;;;;;;;5067371;28;20194;-79
2022/07/11 06:27:25;;;;;;;0.30;0.30;;;;;;;;;;5064854;28;20286;-79
2022/07/11 06:29:54;;;;;;;0.30;0.30;;;;;;;;;;5072926;28;20241;-80
2022/07/11 06:32:25;;;;;;;0.30;0.30;;;;;;;;;;5065469;28;20202;-80
2022/07/11 06:34:53;;;;;;;0.30;0.30;;;;;;;;;;5064915;28;20231;-80
2022/07/11 06:37:23;;;;;;;3.33;0.40;;;;;;;;;;5060577;28;20209;-80
2022/07/11 06:39:52;;;;;;;1.07;1.07;;;;;;;;;;5069816;28;20213;-81
2022/07/11 06:42:22;;;;;;;0.90;0.90;;;;;;;;;;5062668;28;20194;-80
2022/07/11 06:44:54;;;;;;;0.30;0.30;;;;;;;;;;5057454;28;20230;-80
2022/07/11 06:47:25;;;;;;;0.40;0.40;;;;;;;;;;5057423;28;20289;-80
2022/07/11 06:49:54;;;;;;;0.83;0.83;;;;;;;;;;5061093;28;20219;-80
2022/07/11 06:52:24;;;;;;;0.40;0.40;;;;;;;;;;5063709;28;20215;-79
2022/07/11 06:54:52;;;;;;;0.50;0.50;;;;;;;;;;5064977;28;20202;-80
2022/07/11 06:57:21;;;;;;;0.20;0.20;;;;;;;;;;5086281;28;20195;-80
2022/07/11 06:59:49;;;;;;;0.50;0.50;;;;;;;;;;5060890;28;20450;-81
2022/07/11 07:02:18;;;;;;;0.30;0.30;;;;;;;;;;5069827;28;20214;-81
2022/07/11 07:04:46;;;;;;;0.50;0.50;;;;;;;;;;5061304;28;20232;-80
2022/07/11 07:07:15;;;;;;;0.37;0.37;;;;;;;;;;5073162;28;20226;-80
2022/07/11 07:09:51;;;;;;;1.70;0.97;;;;;;;;;;5060444;28;20270;-80
2022/07/11 07:12:20;;;;;;;0.40;0.40;;;;;;;;;;5059852;28;20211;-80
2022/07/11 07:14:51;;;;;;;0.37;0.37;;;;;;;;;;5077162;28;20212;-80
2022/07/11 07:17:20;;;;;;;0.40;0.40;;;;;;;;;;5060415;28;20262;-80
2022/07/11 07:19:49;;;;;;;0.40;0.40;;;;;;;;;;5058926;28;20265;-79
2022/07/11 07:22:17;;;;;;;0.50;0.50;;;;;;;;;;5073116;28;20254;-78
2022/07/11 07:24:49;;;;;;;0.80;0.80;;;;;;;;;;5073459;28;20210;-79
2022/07/11 07:27:18;;;;;;;0.30;0.30;;;;;;;;;;5073159;28;20238;-81
2022/07/11 07:29:47;;;;;;;0.30;0.30;;;;;;;;;;5072333;28;20211;-79
2022/07/11 07:32:16;;;;;;;0.40;0.40;;;;;;;;;;5059518;28;20198;-81
2022/07/11 07:34:44;;;;;;;0.20;0.20;;;;;;;;;;5072772;28;20310;-81
2022/07/11 07:37:14;;;;;;;0.40;0.40;;;;;;;;;;5068408;28;20195;-79
2022/07/11 07:39:43;;;;;;;0.30;0.30;;;;;;;;;;5065518;28;20231;-79
2022/07/11 07:42:16;;;;;;;0.43;0.43;;;;;;;;;;5069245;28;20212;-79
2022/07/11 07:44:45;;;;;;;0.57;0.57;;;;;;;;;;5064635;28;20225;-80
2022/07/11 07:47:14;;;;;;;0.30;0.30;;;;;;;;;;5073238;28;20198;-80
2022/07/11 07:49:42;;;;;;;0.23;0.23;;;;;;;;;;5073413;28;20237;-79
2022/07/11 07:52:11;;;;;;;0.20;0.20;;;;;;;;;;5073562;28;20199;-80
2022/07/11 07:54:40;;;;;;;0.30;0.30;;;;;;;;;;5064858;28;20208;-80
2022/07/11 07:57:09;;;;;;;0.30;0.30;;;;;;;;;;5068867;28;20236;-79
2022/07/11 07:59:39;;;;;;;2.00;0.53;;;;;;;;;;5066069;28;20200;-80
2022/07/11 08:02:07;;;;;;;0.30;0.30;;;;;;;;;;5066920;28;20293;-80
2022/07/11 08:04:38;;;;;;;0.20;0.20;;;;;;;;;;5067102;28;20203;-80
2022/07/11 08:07:07;;;;;;;0.20;0.20;;;;;;;;;;5066560;28;20235;-79
2022/07/11 08:09:36;;;;;;;0.30;0.30;;;;;;;;;;5072582;28;20217;-80
2022/07/11 08:12:05;;;;;;;0.33;0.33;;;;;;;;;;5073878;28;20299;-80
2022/07/11 08:14:34;;;;;;;0.77;0.77;;;;;;;;;;5070901;28;20204;-80
2022/07/11 08:17:05;;;;;;;0.23;0.23;;;;;;;;;;5068251;28;20289;-79
2022/07/11 08:19:33;;;;;;;0.40;0.40;;;;;;;;;;5076963;28;20256;-81
2022/07/11 08:22:08;;;;;;;0.47;0.47;;;;;;;;;;5077041;28;20201;-80
2022/07/11 08:24:37;;;;;;;0.37;0.37;;;;;;;;;;5063450;28;20210;-81
2022/07/11 08:27:06;;;;;;;0.20;0.20;;;;;;;;;;5076666;28;20300;-80
2022/07/11 08:29:54;;;;;;;1.40;0.73;;;;;;;;;;5075368;28;20224;-80
2022/07/11 08:32:24;;;;;;;0.40;0.40;;;;;;;;;;5076286;28;20198;-79
2022/07/11 08:34:53;;;;;;;0.20;0.20;;;;;;;;;;5062502;28;20234;-80
2022/07/11 08:37:25;;;;;;;0.50;0.50;;;;;;;;;;5073192;28;20230;-80
2022/07/11 08:39:53;;;;;;;0.30;0.30;;;;;;;;;;5073407;28;20209;-79
2022/07/11 08:42:25;;;;;;;2.83;0.60;;;;;;;;;;5070400;28;20294;-79
2022/07/11 08:44:53;;;;;;;0.40;0.40;;;;;;;;;;5068765;28;20234;-79
2022/07/11 08:47:22;;;;;;;0.20;0.20;;;;;;;;;;5058156;28;20226;-79
2022/07/11 08:49:53;;;;;;;0.40;0.40;;;;;;;;;;5068005;28;20274;-80
2022/07/11 08:52:22;;;;;;;0.20;0.20;;;;;;;;;;5073273;28;20216;-80
2022/07/11 08:54:53;;;;;;;0.20;0.20;;;;;;;;;;5066904;28;20228;-79
2022/07/11 08:57:21;;;;;;;0.23;0.23;;;;;;;;;;5074471;28;20232;-79
2022/07/11 08:59:50;;;;;;;0.33;0.33;;;;;;;;;;5056529;28;20228;-81
2022/07/11 09:02:19;;;;;;;0.30;0.30;;;;;;;;;;5087533;28;20200;-79
2022/07/11 09:04:48;;;;;;;0.20;0.20;;;;;;;;;;5063803;28;20232;-79
2022/07/11 09:07:19;;;;;;;0.30;0.30;;;;;;;;;;5076465;28;20201;-79
2022/07/11 09:09:47;;;;;;;0.60;0.60;;;;;;;;;;5068821;28;20233;-80
2022/07/11 09:12:16;;;;;;;0.20;0.20;;;;;;;;;;5055638;28;20215;-79
2022/07/11 09:14:50;;;;;;;0.30;0.30;;;;;;;;;;5069801;28;20200;-79
2022/07/11 09:17:25;;;;;;;0.23;0.23;;;;;;;;;;5068303;28;20209;-78
2022/07/11 09:19:53;;;;;;;0.60;0.60;;;;;;;;;;5062204;28;20195;-80
2022/07/11 09:25:23;;;;;;;0.20;0.20;;;;;;;;;;5060455;28;20245;-80
2022/07/11 09:27:53;;;;;;;0.27;0.27;;;;;;;;;;5062652;28;20237;-80
2022/07/11 09:30:23;;;;;;;0.40;0.40;;;;;;;;;;5063253;28;20267;-80
2022/07/11 09:32:59;;;;;;;0.67;0.67;;;;;;;;;;5068630;28;20231;-80
2022/07/11 09:35:30;;;;;;;0.30;0.30;;;;;;;;;;5065231;28;20229;-79
2022/07/11 09:38:00;;;;;;;0.20;0.20;;;;;;;;;;5065129;28;20198;-79
2022/07/11 09:40:29;;;;;;;0.50;0.50;;;;;;;;;;5066531;28;20201;-80
2022/07/11 09:42:58;;;;;;;0.30;0.30;;;;;;;;;;5060061;28;20198;-79
2022/07/11 09:45:27;;;;;;;0.50;0.50;;;;;;;;;;5065942;28;20328;-79
2022/07/11 09:47:57;;;;;;;0.23;0.23;;;;;;;;;;5056845;28;20198;-79
2022/07/11 09:50:26;;;;;;;0.30;0.30;;;;;;;;;;5074934;28;20217;-80
2022/07/11 09:53:04;;;;;;;0.20;0.20;;;;;;;;;;5066594;28;20258;-79
2022/07/11 09:55:33;;;;;;;0.20;0.20;;;;;;;;;;5070969;28;20243;-80
2022/07/11 09:58:31;;;;;;;0.30;0.30;;;;;;;;;;5065536;28;20226;-79
2022/07/11 10:01:00;;;;;;;1.07;0.77;;;;;;;;;;5058113;28;20194;-79
2022/07/11 10:03:30;;;;;;;0.63;0.40;;;;;;;;;;5072538;28;20290;-80
2022/07/11 10:06:23;;;;;;;0.30;0.30;;;;;;;;;;5071736;28;20291;-80
2022/07/11 10:08:53;;;;;;;0.40;0.40;;;;;;;;;;5064607;28;20228;-81
2022/07/11 10:11:22;;;;;;;0.40;0.40;;;;;;;;;;5060572;28;20216;-81
2022/07/11 10:13:51;;;;;;;1.10;0.67;;;;;;;;;;5074807;28;20232;-80
2022/07/11 10:16:26;;;;;;;0.40;0.40;;;;;;;;;;5074819;28;20299;-80
2022/07/11 10:19:01;;;;;;;0.77;0.77;;;;;;;;;;5074854;28;20204;-79
2022/07/11 10:21:33;;;;;;;0.47;0.47;;;;;;;;;;5074625;28;20199;-79
2022/07/11 10:24:11;;;;;;;0.50;0.50;;;;;;;;;;5075343;28;20231;-79
2022/07/11 10:26:44;;;;;;;0.40;0.40;;;;;;;;;;5074706;28;20200;-80
2022/07/11 10:29:16;;;;;;;0.60;0.60;;;;;;;;;;5074405;28;20205;-79
2022/07/11 10:31:49;;;;;;;0.57;0.57;;;;;;;;;;5073713;28;20276;-79
2022/07/11 10:34:38;;;;;;;0.30;0.30;;;;;;;;;;5074751;28;20241;-79
2022/07/11 10:37:08;;;;;;;0.20;0.20;;;;;;;;;;5059497;28;20224;-79
2022/07/11 10:39:46;;;;;;;0.30;0.30;;;;;;;;;;5074272;28;20257;-81
2022/07/11 10:42:21;;;;;;;0.20;0.20;;;;;;;;;;5074087;28;20280;-80
2022/07/11 10:44:53;;;;;;;0.40;0.40;;;;;;;;;;5062534;28;20269;-80
2022/07/11 10:47:46;;;;;;;0.20;0.20;;;;;;;;;;5059910;28;20213;-80
2022/07/11 10:50:38;;;;;;;0.20;0.20;;;;;;;;;;5074169;28;20193;-80
2022/07/11 10:53:09;;;;;;;0.57;0.57;;;;;;;;;;5074595;28;20209;-80
2022/07/11 10:55:47;;;;;;;1.03;0.93;;;;;;;;;;5056714;28;20199;-81
2022/07/11 10:58:21;;;;;;;0.50;0.50;;;;;;;;;;5064285;28;20220;-81
2022/07/11 11:00:50;;;;;;;0.43;0.43;;;;;;;;;;5059144;28;20223;-79
2022/07/11 11:03:19;;;;;;;0.20;0.20;;;;;;;;;;5074745;28;20209;-82
2022/07/11 11:05:49;;;;;;;2.30;0.80;;;;;;;;;;5071748;28;20220;-81
2022/07/11 11:08:40;;;;;;;0.60;0.60;;;;;;;;;;5063025;28;20224;-80
2022/07/11 11:11:35;;;;;;;0.70;0.70;;;;;;;;;;5055113;28;20197;-80
2022/07/11 11:14:27;;;;;;;0.30;0.30;;;;;;;;;;5067960;28;20232;-81
2022/07/11 11:16:56;;;;;;;0.37;0.37;;;;;;;;;;5053501;28;20254;-81
2022/07/11 11:19:43;;;;;;;0.60;0.60;;;;;;;;;;5055792;28;20279;-81
2022/07/11 11:22:14;;;;;;;0.33;0.33;;;;;;;;;;5073879;28;20294;-79
2022/07/11 11:24:45;;;;;;;0.30;0.30;;;;;;;;;;5059445;28;20194;-79
2022/07/11 11:27:35;;;;;;;0.20;0.20;;;;;;;;;;5059762;28;20332;-79
2022/07/11 11:30:07;;;;;;;0.57;0.50;;;;;;;;;;5071146;28;20207;-80
2022/07/11 11:32:35;;;;;;;0.20;0.20;;;;;;;;;;5073815;28;20202;-79
2022/07/11 11:35:05;;;;;;;0.23;0.23;;;;;;;;;;5059991;28;20294;-80
2022/07/11 11:37:38;;;;;;;0.73;0.70;;;;;;;;;;5073435;28;20233;-79
2022/07/11 11:40:08;;;;;;;0.40;0.40;;;;;;;;;;5072277;28;20205;-79
2022/07/11 11:42:36;;;;;;;0.47;0.40;;;;;;;;;;5053482;28;20249;-79
2022/07/11 11:45:10;;;;;;;0.20;0.20;;;;;;;;;;5067417;28;20205;-80
2022/07/11 11:47:50;;;;;;;1.07;0.40;;;;;;;;;;5060392;28;20210;-80
2022/07/11 11:50:19;;;;;;;0.43;0.43;;;;;;;;;;5077170;28;20252;-81
2022/07/11 11:52:48;;;;;;;0.40;0.40;;;;;;;;;;5076976;28;20213;-81
2022/07/11 11:55:16;;;;;;;0.30;0.30;;;;;;;;;;5063756;28;20208;-79
2022/07/11 11:57:45;;;;;;;0.40;0.40;;;;;;;;;;5077178;28;20261;-79
2022/07/11 12:00:26;;;;;;;0.30;0.30;;;;;;;;;;5077045;28;20202;-80
2022/07/11 12:03:15;;;;;;;0.33;0.33;;;;;;;;;;5077046;28;20207;-80
2022/07/11 12:05:54;;;;;;;0.20;0.20;;;;;;;;;;5061587;28;20216;-80
2022/07/11 12:08:27;;;;;;;0.30;0.30;;;;;;;;;;5076698;28;20208;-80
2022/07/11 12:10:55;;;;;;;0.50;0.50;;;;;;;;;;5077152;28;20211;-80
2022/07/11 12:13:24;;;;;;;0.30;0.30;;;;;;;;;;5078435;28;20203;-80
2022/07/11 12:18:41;;;;;;;0.30;0.30;;;;;;;;;;5066032;28;20212;-80
2022/07/11 12:21:11;;;;;;;0.10;0.10;;;;;;;;;;5075513;28;20211;-78
2022/07/11 12:23:40;;;;;;;0.40;0.40;;;;;;;;;;5064901;28;20204;-80
2022/07/11 12:26:11;;;;;;;0.63;0.63;;;;;;;;;;5076905;28;20227;-79
2022/07/11 12:28:55;;;;;;;0.43;0.43;;;;;;;;;;5060354;28;20232;-79
2022/07/11 12:31:25;;;;;;;0.30;0.30;;;;;;;;;;5063505;28;20210;-80
2022/07/11 12:33:56;;;;;;;0.40;0.40;;;;;;;;;;5076955;28;20211;-80
2022/07/11 12:36:33;;;;;;;0.30;0.30;;;;;;;;;;5076996;28;20203;-80
2022/07/11 12:39:02;;;;;;;0.50;0.50;;;;;;;;;;5076949;28;20195;-80
2022/07/11 12:41:31;;;;;;;0.83;0.80;;;;;;;;;;5076532;28;20234;-80
2022/07/11 12:46:50;;;;;;;0.50;0.50;;;;;;;;;;5076167;28;20228;-78
2022/07/11 12:49:19;;;;;;;0.50;0.50;;;;;;;;;;5069435;28;20209;-79
2022/07/11 12:51:50;;;;;;;1.03;0.93;;;;;;;;;;5070827;28;20248;-79
2022/07/11 12:54:19;;;;;;;0.57;0.57;;;;;;;;;;5070970;28;20204;-80
2022/07/11 12:56:54;;;;;;;0.63;0.63;;;;;;;;;;5068681;28;20209;-79
2022/07/11 12:59:26;;;;;;;0.70;0.70;;;;;;;;;;5061675;28;20203;-79
2022/07/11 13:01:57;;;;;;;0.60;0.60;;;;;;;;;;5063784;28;20216;-80
2022/07/11 13:04:33;;;;;;;0.60;0.60;;;;;;;;;;5056606;28;20210;-80
2022/07/11 13:10:03;;;;;;;0.30;0.30;;;;;;;;;;5062234;28;20211;-79
2022/07/11 13:12:32;;;;;;;1.97;1.23;;;;;;;;;;5056119;28;20227;-79
2022/07/11 13:15:10;;;;;;;0.60;0.60;;;;;;;;;;5064128;28;20204;-79
2022/07/11 13:17:41;;;;;;;0.30;0.30;;;;;;;;;;5075516;28;20232;-80
2022/07/11 13:20:13;;;;;;;0.60;0.47;;;;;;;;;;5067299;28;20250;-81
2022/07/11 13:22:45;;;;;;;0.30;0.30;;;;;;;;;;5075631;28;20210;-80
2022/07/11 13:25:15;;;;;;;1.80;0.70;;;;;;;;;;5068002;28;20195;-80
2022/07/11 13:27:45;;;;;;;0.67;0.67;;;;;;;;;;5056600;28;20246;-80
2022/07/11 13:30:16;;;;;;;0.83;0.60;;;;;;;;;;5086792;28;20202;-80
2022/07/11 13:32:47;;;;;;;0.60;0.60;;;;;;;;;;5066102;28;20204;-80
2022/07/11 13:35:17;;;;;;;1.03;0.90;;;;;;;;;;5075108;28;20260;-80
2022/07/11 13:37:48;;;;;;;1.60;0.80;;;;;;;;;;5075116;28;20231;-80
2022/07/11 13:40:18;;;;;;;1.53;0.80;;;;;;;;;;5059744;28;20233;-80
2022/07/11 13:42:48;;;;;;;0.30;0.30;;;;;;;;;;5054968;28;20224;-80
2022/07/11 13:45:18;;;;;;;0.50;0.50;;;;;;;;;;5055650;28;20210;-80
2022/07/11 13:47:51;;;;;;;0.50;0.50;;;;;;;;;;5055198;28;20304;-80
2022/07/11 13:50:21;;;;;;;0.33;0.33;;;;;;;;;;5087190;28;20208;-80
2022/07/11 13:52:49;;;;;;;0.50;0.50;;;;;;;;;;5067532;28;20292;-80
2022/07/11 13:55:22;;;;;;;0.60;0.60;;;;;;;;;;5056678;28;20211;-80
2022/07/11 13:57:52;;;;;;;0.97;0.87;;;;;;;;;;5055314;28;20199;-80
2022/07/11 14:00:22;;;;;;;1.30;0.90;;;;;;;;;;5085276;28;20196;-79
2022/07/11 14:02:52;;;;;;;1.07;1.07;;;;;;;;;;5060934;28;20224;-80
2022/07/11 14:05:21;;;;;;;0.93;0.90;;;;;;;;;;5074536;28;20195;-79
2022/07/11 14:07:50;;;;;;;1.13;1.03;;;;;;;;;;5074572;28;20211;-79
2022/07/11 14:10:24;;;;;;;1.30;1.20;;;;;;;;;;5074486;28;20298;-79
2022/07/11 14:12:57;;;;;;;1.80;0.70;;;;;;;;;;5068941;28;20292;-79
2022/07/11 14:15:26;;;;;;;0.50;0.50;;;;;;;;;;5063186;28;20300;-80
2022/07/11 14:17:56;;;;;;;0.40;0.40;;;;;;;;;;5072362;28;20204;-81
2022/07/11 14:20:26;;;;;;;0.77;0.77;;;;;;;;;;5064030;28;20210;-79
2022/07/11 14:22:54;;;;;;;0.50;0.50;;;;;;;;;;5070957;28;20209;-78
2022/07/11 14:25:23;;;;;;;0.40;0.40;;;;;;;;;;5074451;28;20204;-79
2022/07/11 14:27:52;;;;;;;0.97;0.90;;;;;;;;;;5059101;28;20245;-80
2022/07/11 14:30:21;;;;;;;0.80;0.80;;;;;;;;;;5067512;28;20233;-81
2022/07/11 14:32:51;;;;;;;0.60;0.60;;;;;;;;;;5065054;28;20329;-80
2022/07/11 14:35:21;;;;;;;0.53;0.53;;;;;;;;;;5060604;28;20212;-79
2022/07/11 14:37:49;;;;;;;0.50;0.50;;;;;;;;;;5074099;28;20208;-80
2022/07/11 14:40:19;;;;;;;0.87;0.70;;;;;;;;;;5073664;28;20300;-80
2022/07/11 14:42:52;;;;;;;0.73;0.73;;;;;;;;;;5064515;28;20221;-80
2022/07/11 14:45:22;;;;;;;0.90;0.90;;;;;;;;;;5069888;28;20248;-80
2022/07/11 14:47:53;;;;;;;0.60;0.60;;;;;;;;;;5065453;28;20193;-80
2022/07/11 14:50:24;;;;;;;0.70;0.70;;;;;;;;;;5068033;28;20204;-80
2022/07/11 14:52:52;;;;;;;1.17;1.00;;;;;;;;;;5058564;28;20265;-80
2022/07/11 14:55:22;;;;;;;0.40;0.40;;;;;;;;;;5059272;28;20209;-80
2022/07/11 14:57:50;;;;;;;0.67;0.67;;;;;;;;;;5060899;28;20322;-80
2022/07/11 15:00:21;;;;;;;0.70;0.70;;;;;;;;;;5073099;28;20207;-79
2022/07/11 15:05:37;;;;;;;7.77;1.07;;;;;;;;;;5073997;28;20210;-79
2022/07/11 15:13:37;;;;;;;1.37;0.90;;;;;;;;;;5064707;28;20208;-80
2022/07/11 15:16:06;;;;;;;0.60;0.60;;;;;;;;;;5069527;28;20205;-79
2022/07/11 15:18:34;;;;;;;0.33;0.33;;;;;;;;;;5053216;28;20222;-80
2022/07/11 15:21:04;;;;;;;0.43;0.43;;;;;;;;;;5054286;28;20194;-79
2022/07/11 15:23:32;;;;;;;0.43;0.43;;;;;;;;;;5062385;28;20232;-80